Terminal Aerodrome Forecast
Issued by NWS Louisville, KY

Home | Current Version | Previous Version | Text Only | Print | Product List | Glossary On
Versions: 1 2 3 4 5 6 7 8 9 10 11 12 13 14 15 16
000
FTUS43 KLMK 200520
TAFSDF
TAF
KSDF 200520Z 2006/2112 12006KT 3SM RA BR BKN006
     FM201000 22005KT 5SM BR BKN008
     FM201500 22006KT P6SM BKN012
     FM202000 21007KT P6SM BKN040
     FM210400 16005KT 5SM BR SCT020 BKN040=

USA.gov is the U.S. government's official web portal to all federal, state and local government web resources and services.